createdAt,value
2023-02-07T00:02:46.174Z,1.87
2023-02-07T00:07:48.426Z,1.91
2023-02-07T00:12:50.719Z,1.65
2023-02-07T00:17:53.014Z,1.67
2023-02-07T00:22:55.430Z,1.79
2023-02-07T00:27:57.676Z,2.03
2023-02-07T00:33:00.041Z,1.62
2023-02-07T00:38:02.315Z,2.35
2023-02-07T00:43:04.660Z,2.05
2023-02-07T00:48:07.039Z,1.72
2023-02-07T00:53:09.289Z,2.15
2023-02-07T00:58:11.498Z,1.46
2023-02-07T01:03:14.884Z,1.36
2023-02-07T01:08:17.417Z,1.90
2023-02-07T01:13:19.630Z,1.68
2023-02-07T01:18:21.911Z,1.82
2023-02-07T01:23:24.202Z,2.03
2023-02-07T01:28:26.513Z,1.64
2023-02-07T01:33:28.729Z,1.57
2023-02-07T01:38:31.631Z,1.84
2023-02-07T01:43:34.024Z,1.43
2023-02-07T01:48:37.909Z,1.38
2023-02-07T01:53:41.296Z,1.41
2023-02-07T01:58:43.948Z,1.54
2023-02-07T02:03:49.537Z,1.62
2023-02-07T02:09:00.578Z,1.14
2023-02-07T02:14:42.432Z,1.37
2023-02-07T02:20:58.706Z,1.61
2023-02-07T02:26:32.992Z,1.14
2023-02-07T02:31:59.377Z,1.98
2023-02-07T02:37:24.296Z,1.31
2023-02-07T02:42:55.820Z,0.82
2023-02-07T02:47:58.662Z,1.13
2023-02-07T02:53:01.063Z,1.09
2023-02-07T02:58:32.700Z,0.65
2023-02-07T03:03:54.955Z,1.13
2023-02-07T03:09:26.338Z,1.37
2023-02-07T03:14:53.530Z,1.33
2023-02-07T03:20:22.734Z,1.57
2023-02-07T03:25:25.583Z,1.26
2023-02-07T03:30:33.770Z,1.15
2023-02-07T03:35:58.130Z,1.47
2023-02-07T03:41:12.136Z,2.26
2023-02-07T03:46:14.391Z,1.38
2023-02-07T03:51:16.678Z,2.07
2023-02-07T03:56:18.903Z,1.85
2023-02-07T04:01:21.377Z,1.19
2023-02-07T04:06:24.019Z,1.54
2023-02-07T04:11:26.366Z,1.74
2023-02-07T04:16:28.812Z,1.94
2023-02-07T04:21:31.128Z,1.67
2023-02-07T04:26:33.513Z,1.26
2023-02-07T04:31:37.739Z,0.12
2023-02-07T04:36:40.052Z,0.87
2023-02-07T04:41:42.344Z,0.88
2023-02-07T04:46:44.556Z,0.59
2023-02-07T04:51:46.843Z,0.06
2023-02-07T04:56:49.093Z,-0.08
2023-02-07T05:01:51.388Z,-0.18
2023-02-07T05:06:53.625Z,0.17
2023-02-07T05:11:55.746Z,-0.13
2023-02-07T05:16:58.039Z,0.27
2023-02-07T05:22:00.321Z,0.45
2023-02-07T05:27:02.666Z,0.65
2023-02-07T05:32:23.937Z,0.63
2023-02-07T05:37:26.517Z,0.47
2023-02-07T05:42:28.634Z,-0.16
2023-02-07T05:47:30.745Z,0.36
2023-02-07T05:52:35.574Z,-0.18
2023-02-07T05:57:38.002Z,0.02
2023-02-07T06:02:41.196Z,-0.26
2023-02-07T06:07:44.405Z,-0.09
2023-02-07T06:12:47.071Z,0.12
2023-02-07T06:17:49.337Z,0.72
2023-02-07T06:22:52.391Z,0.38
2023-02-07T06:27:54.731Z,-0.22
2023-02-07T06:32:57.288Z,0.02
2023-02-07T06:38:00.620Z,-0.14
2023-02-07T06:43:02.910Z,0.05
2023-02-07T06:48:05.366Z,0.32
2023-02-07T06:53:07.614Z,0.09
2023-02-07T06:58:09.960Z,0.72
2023-02-07T07:03:16.654Z,0.90
2023-02-07T07:08:19.137Z,0.74
2023-02-07T07:13:21.440Z,0.24
2023-02-07T07:18:23.561Z,-0.06
2023-02-07T07:23:25.752Z,0.47
2023-02-07T07:28:28.084Z,0.70
2023-02-07T07:33:30.280Z,1.01
2023-02-07T07:38:33.240Z,0.86
2023-02-07T07:43:35.366Z,0.62
2023-02-07T07:48:37.502Z,0.45
2023-02-07T07:53:39.668Z,1.19
2023-02-07T07:58:42.016Z,0.57
2023-02-07T08:03:44.152Z,1.10
2023-02-07T08:08:47.371Z,0.69
2023-02-07T08:13:50.511Z,1.09
2023-02-07T08:18:53.795Z,1.69
2023-02-07T08:23:56.296Z,1.60
2023-02-07T08:28:58.543Z,1.72
2023-02-07T08:34:00.968Z,2.20
2023-02-07T08:39:05.731Z,2.36
2023-02-07T08:44:08.813Z,1.98
2023-02-07T08:49:11.012Z,2.69
2023-02-07T08:54:13.532Z,2.24
2023-02-07T08:59:15.983Z,2.89
2023-02-07T09:04:18.432Z,2.93
2023-02-07T09:09:20.744Z,2.63
2023-02-07T09:14:23.117Z,2.83
2023-02-07T09:19:25.621Z,3.26
2023-02-07T09:24:28.092Z,2.73
2023-02-07T09:29:30.329Z,3.69
2023-02-07T09:34:35.972Z,3.17
2023-02-07T09:39:39.271Z,2.86
2023-02-07T09:45:10.571Z,2.26
2023-02-07T09:50:23.456Z,3.78
2023-02-07T09:55:53.124Z,3.77
2023-02-07T10:01:22.708Z,2.80
2023-02-07T10:06:28.694Z,2.48
2023-02-07T10:11:52.716Z,3.18
2023-02-07T10:17:12.173Z,2.57
2023-02-07T10:22:37.601Z,2.34
2023-02-07T10:28:00.797Z,2.75
2023-02-07T10:33:16.254Z,3.22
2023-02-07T10:39:07.747Z,3.42
2023-02-07T10:44:18.503Z,3.85
2023-02-07T10:49:28.328Z,3.38
2023-02-07T10:54:30.745Z,3.66
2023-02-07T10:59:46.020Z,3.70
2023-02-07T11:04:48.321Z,3.50
2023-02-07T11:09:50.629Z,3.57
2023-02-07T11:15:11.436Z,4.37
2023-02-07T11:20:40.988Z,4.44
2023-02-07T11:25:47.377Z,4.21
2023-02-07T11:31:05.891Z,4.43
2023-02-07T11:36:25.534Z,4.42
2023-02-07T11:41:34.115Z,4.24
2023-02-07T11:46:45.393Z,4.79
2023-02-07T11:51:56.616Z,4.82
2023-02-07T11:57:12.882Z,5.19
2023-02-07T12:02:23.590Z,5.15
2023-02-07T12:07:36.209Z,4.58
2023-02-07T12:13:01.096Z,4.75
2023-02-07T12:18:11.785Z,5.85
2023-02-07T12:23:41.942Z,5.06
2023-02-07T12:28:53.310Z,4.97
2023-02-07T12:34:17.915Z,5.09
2023-02-07T12:39:39.908Z,5.91
2023-02-07T12:44:52.454Z,5.73
2023-02-07T12:50:12.100Z,6.11
2023-02-07T12:55:43.682Z,6.38
2023-02-07T13:01:16.069Z,5.90
2023-02-07T13:06:49.161Z,5.71
2023-02-07T13:12:13.680Z,6.06
2023-02-07T13:17:53.854Z,5.51
2023-02-07T13:23:03.469Z,6.05
2023-02-07T13:28:30.540Z,6.71
2023-02-07T13:33:40.327Z,6.99
2023-02-07T13:39:11.891Z,5.27
2023-02-07T13:44:32.033Z,6.78
2023-02-07T13:49:49.109Z,7.15
2023-02-07T13:55:15.107Z,6.29
2023-02-07T14:00:25.156Z,6.68
2023-02-07T14:05:35.535Z,6.34
2023-02-07T14:10:52.786Z,6.92
2023-02-07T14:15:58.113Z,6.74
2023-02-07T14:21:06.066Z,7.00
2023-02-07T14:26:39.395Z,6.73
2023-02-07T14:31:54.045Z,6.52
2023-02-07T14:36:56.857Z,8.20
2023-02-07T14:42:16.175Z,7.54
2023-02-07T14:47:25.846Z,7.35
2023-02-07T14:52:33.345Z,7.16
2023-02-07T14:58:01.281Z,6.63
2023-02-07T15:03:19.456Z,7.22
2023-02-07T15:08:28.605Z,6.72
2023-02-07T15:13:36.865Z,7.04
2023-02-07T15:18:48.496Z,6.29
2023-02-07T15:24:49.566Z,7.02
2023-02-07T15:30:01.477Z,6.12
2023-02-07T15:35:39.635Z,6.32
2023-02-07T15:40:42.643Z,6.51
2023-02-07T15:46:09.619Z,6.88
2023-02-07T15:51:14.063Z,5.88
2023-02-07T15:56:16.621Z,6.18
2023-02-07T16:01:28.497Z,5.48
2023-02-07T16:06:32.748Z,5.42
2023-02-07T16:11:39.994Z,5.66
2023-02-07T16:16:51.579Z,5.16
2023-02-07T16:22:14.042Z,4.68
2023-02-07T16:27:30.375Z,5.22
2023-02-07T16:32:36.101Z,5.28
2023-02-07T16:37:38.368Z,4.72
2023-02-07T16:42:42.869Z,4.12
2023-02-07T16:47:45.561Z,3.69
2023-02-07T16:52:50.129Z,3.71
2023-02-07T16:57:53.526Z,3.39
2023-02-07T17:02:55.816Z,3.03
2023-02-07T17:07:58.111Z,2.70
2023-02-07T17:13:00.562Z,2.53
2023-02-07T17:18:03.686Z,3.25
2023-02-07T17:23:05.995Z,2.81
2023-02-07T17:28:11.632Z,2.54
2023-02-07T17:33:14.069Z,2.74
2023-02-07T17:38:16.531Z,2.29
2023-02-07T17:43:18.850Z,2.55
2023-02-07T17:48:21.165Z,3.06
2023-02-07T17:53:23.538Z,2.79
2023-02-07T17:58:25.857Z,2.79
2023-02-07T18:03:28.390Z,2.74
2023-02-07T18:08:30.669Z,1.84
2023-02-07T18:13:35.803Z,1.95
2023-02-07T18:18:39.911Z,1.54
2023-02-07T18:23:43.156Z,2.09
2023-02-07T18:28:46.573Z,1.63
2023-02-07T18:33:54.709Z,2.46
2023-02-07T18:38:58.453Z,2.54
2023-02-07T18:44:00.589Z,2.59
2023-02-07T18:49:02.762Z,2.64
2023-02-07T18:54:05.278Z,1.37
2023-02-07T18:59:07.663Z,1.86
2023-02-07T19:04:09.896Z,1.92
2023-02-07T19:09:12.656Z,1.59
2023-02-07T19:14:18.900Z,1.37
2023-02-07T19:19:21.806Z,1.21
2023-02-07T19:24:25.303Z,0.83
2023-02-07T19:29:30.067Z,1.89
2023-02-07T19:34:33.571Z,1.92
2023-02-07T19:39:35.696Z,0.96
2023-02-07T19:44:37.806Z,0.27
2023-02-07T19:49:39.998Z,0.63
2023-02-07T19:54:42.349Z,0.79
2023-02-07T19:59:46.101Z,2.14
2023-02-07T20:04:49.111Z,1.64
2023-02-07T20:09:51.302Z,0.65
2023-02-07T20:14:53.559Z,1.34
2023-02-07T20:19:55.788Z,1.01
2023-02-07T20:24:57.906Z,1.00
2023-02-07T20:30:00.123Z,1.70
2023-02-07T20:35:02.281Z,0.58
2023-02-07T20:40:04.752Z,0.54
2023-02-07T20:45:07.798Z,1.11
2023-02-07T20:50:10.161Z,0.83
2023-02-07T20:55:12.534Z,0.50
2023-02-07T21:00:15.570Z,0.52
2023-02-07T21:05:18.061Z,1.21
2023-02-07T21:10:20.348Z,0.64
2023-02-07T21:15:25.358Z,0.97
2023-02-07T21:20:28.054Z,0.35
2023-02-07T21:25:31.859Z,-0.06
2023-02-07T21:30:34.951Z,-0.17
2023-02-07T21:35:37.434Z,0.05
2023-02-07T21:40:39.800Z,0.81
2023-02-07T21:45:42.036Z,0.21
2023-02-07T21:50:44.340Z,0.97
2023-02-07T21:55:46.529Z,-0.16
2023-02-07T22:00:48.815Z,0.15
2023-02-07T22:05:52.675Z,-0.08
2023-02-07T22:10:54.977Z,-0.25
2023-02-07T22:15:57.206Z,-0.56
2023-02-07T22:21:18.646Z,-0.43
2023-02-07T22:26:21.846Z,-0.45
2023-02-07T22:31:28.463Z,-0.40
2023-02-07T22:36:34.354Z,-0.63
2023-02-07T22:41:37.082Z,-0.16
2023-02-07T22:46:40.282Z,-1.15
2023-02-07T22:51:42.452Z,-0.35
2023-02-07T22:56:46.204Z,-0.55
2023-02-07T23:01:48.580Z,-0.33
2023-02-07T23:06:52.196Z,-0.37
2023-02-07T23:11:54.487Z,-0.84
2023-02-07T23:16:56.761Z,-0.17
2023-02-07T23:21:59.693Z,-1.35
2023-02-07T23:27:02.028Z,0.06
2023-02-07T23:32:04.924Z,-0.66
2023-02-07T23:37:07.182Z,-1.28
2023-02-07T23:42:10.601Z,-1.32
2023-02-07T23:47:13.029Z,-1.18
2023-02-07T23:52:15.339Z,-0.89
2023-02-07T23:57:17.606Z,-1.25
